sensor_id;sensor_type;location;lat;lon;timestamp;P1;durP1;ratioP1;P2;durP2;ratioP2
20114;SDS011;10218;42.874;25.320;2022-11-15T00:01:42;26.13;;;15.97;;
20114;SDS011;10218;42.874;25.320;2022-11-15T00:04:27;26.87;;;15.70;;
20114;SDS011;10218;42.874;25.320;2022-11-15T00:07:13;29.47;;;16.93;;
20114;SDS011;10218;42.874;25.320;2022-11-15T00:10:06;29.93;;;16.53;;
20114;SDS011;10218;42.874;25.320;2022-11-15T00:12:52;30.80;;;17.03;;
20114;SDS011;10218;42.874;25.320;2022-11-15T00:15:38;40.27;;;17.67;;
20114;SDS011;10218;42.874;25.320;2022-11-15T00:18:24;33.43;;;17.10;;
20114;SDS011;10218;42.874;25.320;2022-11-15T00:21:10;30.40;;;16.90;;
20114;SDS011;10218;42.874;25.320;2022-11-15T00:23:57;28.27;;;16.20;;
20114;SDS011;10218;42.874;25.320;2022-11-15T00:26:43;31.97;;;17.27;;
20114;SDS011;10218;42.874;25.320;2022-11-15T00:29:29;32.10;;;16.93;;
20114;SDS011;10218;42.874;25.320;2022-11-15T00:32:14;31.20;;;16.23;;
20114;SDS011;10218;42.874;25.320;2022-11-15T00:34:59;31.40;;;17.17;;
20114;SDS011;10218;42.874;25.320;2022-11-15T00:37:45;28.07;;;16.20;;
20114;SDS011;10218;42.874;25.320;2022-11-15T00:40:32;36.57;;;18.53;;
20114;SDS011;10218;42.874;25.320;2022-11-15T00:43:18;34.17;;;18.30;;
20114;SDS011;10218;42.874;25.320;2022-11-15T00:46:03;31.97;;;17.63;;
20114;SDS011;10218;42.874;25.320;2022-11-15T00:48:49;31.57;;;17.83;;
20114;SDS011;10218;42.874;25.320;2022-11-15T00:51:34;28.10;;;16.77;;
20114;SDS011;10218;42.874;25.320;2022-11-15T00:54:20;27.07;;;16.87;;
20114;SDS011;10218;42.874;25.320;2022-11-15T00:57:05;28.30;;;16.60;;
20114;SDS011;10218;42.874;25.320;2022-11-15T00:59:50;28.83;;;16.00;;
20114;SDS011;10218;42.874;25.320;2022-11-15T01:02:36;27.43;;;16.30;;
20114;SDS011;10218;42.874;25.320;2022-11-15T01:05:21;28.07;;;15.97;;
20114;SDS011;10218;42.874;25.320;2022-11-15T01:08:10;27.23;;;15.47;;
20114;SDS011;10218;42.874;25.320;2022-11-15T01:11:04;23.60;;;15.23;;
20114;SDS011;10218;42.874;25.320;2022-11-15T01:13:50;26.50;;;17.13;;
20114;SDS011;10218;42.874;25.320;2022-11-15T01:16:36;26.70;;;16.60;;
20114;SDS011;10218;42.874;25.320;2022-11-15T01:19:21;29.67;;;16.67;;
20114;SDS011;10218;42.874;25.320;2022-11-15T01:22:07;27.20;;;15.77;;
20114;SDS011;10218;42.874;25.320;2022-11-15T01:24:52;24.83;;;15.03;;
20114;SDS011;10218;42.874;25.320;2022-11-15T01:27:38;27.67;;;16.57;;
20114;SDS011;10218;42.874;25.320;2022-11-15T01:30:24;29.00;;;16.57;;
20114;SDS011;10218;42.874;25.320;2022-11-15T01:33:09;28.53;;;16.50;;
20114;SDS011;10218;42.874;25.320;2022-11-15T01:35:55;28.93;;;16.87;;
20114;SDS011;10218;42.874;25.320;2022-11-15T01:38:40;30.60;;;18.60;;
20114;SDS011;10218;42.874;25.320;2022-11-15T01:41:27;29.07;;;16.20;;
20114;SDS011;10218;42.874;25.320;2022-11-15T01:47:35;25.03;;;14.60;;
20114;SDS011;10218;42.874;25.320;2022-11-15T01:50:26;20.07;;;12.77;;
20114;SDS011;10218;42.874;25.320;2022-11-15T01:53:16;19.63;;;13.17;;
20114;SDS011;10218;42.874;25.320;2022-11-15T01:56:04;19.63;;;13.23;;
20114;SDS011;10218;42.874;25.320;2022-11-15T01:58:53;25.27;;;14.87;;
20114;SDS011;10218;42.874;25.320;2022-11-15T02:01:41;21.83;;;13.83;;
20114;SDS011;10218;42.874;25.320;2022-11-15T02:04:28;24.47;;;15.00;;
20114;SDS011;10218;42.874;25.320;2022-11-15T02:07:17;22.33;;;13.50;;
20114;SDS011;10218;42.874;25.320;2022-11-15T02:10:09;24.63;;;15.57;;
20114;SDS011;10218;42.874;25.320;2022-11-15T02:12:57;23.17;;;14.03;;
20114;SDS011;10218;42.874;25.320;2022-11-15T02:22:14;21.10;;;13.20;;
20114;SDS011;10218;42.874;25.320;2022-11-15T02:31:49;21.53;;;13.40;;
20114;SDS011;10218;42.874;25.320;2022-11-15T02:34:48;24.97;;;13.73;;
20114;SDS011;10218;42.874;25.320;2022-11-15T02:43:40;18.50;;;12.13;;
20114;SDS011;10218;42.874;25.320;2022-11-15T02:46:51;23.67;;;13.40;;
20114;SDS011;10218;42.874;25.320;2022-11-15T02:49:58;20.80;;;12.90;;
20114;SDS011;10218;42.874;25.320;2022-11-15T02:52:48;18.90;;;13.17;;
20114;SDS011;10218;42.874;25.320;2022-11-15T02:55:38;22.83;;;14.33;;
20114;SDS011;10218;42.874;25.320;2022-11-15T03:01:38;26.67;;;15.90;;
20114;SDS011;10218;42.874;25.320;2022-11-15T03:19:49;26.90;;;16.37;;
20114;SDS011;10218;42.874;25.320;2022-11-15T03:22:38;29.60;;;18.20;;
20114;SDS011;10218;42.874;25.320;2022-11-15T03:25:27;30.03;;;18.20;;
20114;SDS011;10218;42.874;25.320;2022-11-15T03:28:17;32.07;;;18.93;;
20114;SDS011;10218;42.874;25.320;2022-11-15T03:31:07;29.77;;;18.30;;
20114;SDS011;10218;42.874;25.320;2022-11-15T03:37:40;22.70;;;14.67;;
20114;SDS011;10218;42.874;25.320;2022-11-15T03:40:47;21.70;;;13.80;;
20114;SDS011;10218;42.874;25.320;2022-11-15T03:44:04;22.87;;;13.57;;
20114;SDS011;10218;42.874;25.320;2022-11-15T03:50:00;22.80;;;14.40;;
20114;SDS011;10218;42.874;25.320;2022-11-15T03:53:06;21.03;;;13.20;;
20114;SDS011;10218;42.874;25.320;2022-11-15T03:55:51;19.83;;;12.80;;
20114;SDS011;10218;42.874;25.320;2022-11-15T03:58:37;20.30;;;13.13;;
20114;SDS011;10218;42.874;25.320;2022-11-15T04:01:22;20.43;;;13.67;;
20114;SDS011;10218;42.874;25.320;2022-11-15T04:04:07;21.97;;;13.77;;
20114;SDS011;10218;42.874;25.320;2022-11-15T04:06:53;22.73;;;15.37;;
20114;SDS011;10218;42.874;25.320;2022-11-15T04:09:38;22.03;;;13.07;;
20114;SDS011;10218;42.874;25.320;2022-11-15T04:12:44;22.80;;;14.03;;
20114;SDS011;10218;42.874;25.320;2022-11-15T04:15:34;22.27;;;14.00;;
20114;SDS011;10218;42.874;25.320;2022-11-15T04:18:19;21.57;;;13.20;;
20114;SDS011;10218;42.874;25.320;2022-11-15T04:21:04;20.40;;;12.63;;
20114;SDS011;10218;42.874;25.320;2022-11-15T04:24:25;20.90;;;13.03;;
20114;SDS011;10218;42.874;25.320;2022-11-15T04:27:10;18.37;;;12.27;;
20114;SDS011;10218;42.874;25.320;2022-11-15T04:29:58;20.77;;;12.73;;
20114;SDS011;10218;42.874;25.320;2022-11-15T04:32:43;22.07;;;11.90;;
20114;SDS011;10218;42.874;25.320;2022-11-15T04:35:29;20.50;;;12.80;;
20114;SDS011;10218;42.874;25.320;2022-11-15T04:38:14;20.30;;;12.97;;
20114;SDS011;10218;42.874;25.320;2022-11-15T04:41:00;21.67;;;12.80;;
20114;SDS011;10218;42.874;25.320;2022-11-15T04:43:46;23.00;;;13.47;;
20114;SDS011;10218;42.874;25.320;2022-11-15T04:46:32;22.07;;;13.90;;
20114;SDS011;10218;42.874;25.320;2022-11-15T04:49:17;22.07;;;14.10;;
20114;SDS011;10218;42.874;25.320;2022-11-15T04:52:03;26.03;;;16.00;;
20114;SDS011;10218;42.874;25.320;2022-11-15T04:54:48;24.47;;;14.30;;
20114;SDS011;10218;42.874;25.320;2022-11-15T04:57:34;24.80;;;14.83;;
20114;SDS011;10218;42.874;25.320;2022-11-15T05:00:19;23.70;;;15.00;;
20114;SDS011;10218;42.874;25.320;2022-11-15T05:03:05;26.97;;;14.37;;
20114;SDS011;10218;42.874;25.320;2022-11-15T05:06:09;23.40;;;14.37;;
20114;SDS011;10218;42.874;25.320;2022-11-15T05:08:55;20.87;;;12.67;;
20114;SDS011;10218;42.874;25.320;2022-11-15T05:11:41;22.60;;;14.50;;
20114;SDS011;10218;42.874;25.320;2022-11-15T05:14:27;23.57;;;14.10;;
20114;SDS011;10218;42.874;25.320;2022-11-15T05:17:12;23.67;;;14.63;;
20114;SDS011;10218;42.874;25.320;2022-11-15T05:19:58;24.80;;;15.33;;
20114;SDS011;10218;42.874;25.320;2022-11-15T05:22:43;25.87;;;15.80;;
20114;SDS011;10218;42.874;25.320;2022-11-15T05:25:28;23.97;;;14.33;;
20114;SDS011;10218;42.874;25.320;2022-11-15T05:28:14;25.03;;;15.07;;
20114;SDS011;10218;42.874;25.320;2022-11-15T05:31:06;25.43;;;15.97;;
20114;SDS011;10218;42.874;25.320;2022-11-15T05:33:53;30.47;;;17.60;;
20114;SDS011;10218;42.874;25.320;2022-11-15T05:36:43;24.67;;;13.63;;
20114;SDS011;10218;42.874;25.320;2022-11-15T05:39:30;25.33;;;15.20;;
20114;SDS011;10218;42.874;25.320;2022-11-15T05:42:15;24.93;;;15.83;;
20114;SDS011;10218;42.874;25.320;2022-11-15T05:45:02;24.10;;;14.50;;
20114;SDS011;10218;42.874;25.320;2022-11-15T05:47:50;25.23;;;15.67;;
20114;SDS011;10218;42.874;25.320;2022-11-15T05:50:39;26.73;;;16.00;;
20114;SDS011;10218;42.874;25.320;2022-11-15T05:53:29;25.00;;;16.13;;
20114;SDS011;10218;42.874;25.320;2022-11-15T05:56:15;26.90;;;15.10;;
20114;SDS011;10218;42.874;25.320;2022-11-15T05:59:01;27.87;;;15.77;;
20114;SDS011;10218;42.874;25.320;2022-11-15T06:01:47;31.00;;;16.67;;
20114;SDS011;10218;42.874;25.320;2022-11-15T06:04:33;31.73;;;16.37;;
20114;SDS011;10218;42.874;25.320;2022-11-15T06:07:18;32.80;;;17.43;;
20114;SDS011;10218;42.874;25.320;2022-11-15T06:10:04;28.10;;;16.67;;
20114;SDS011;10218;42.874;25.320;2022-11-15T06:12:59;34.70;;;17.73;;
20114;SDS011;10218;42.874;25.320;2022-11-15T06:15:46;40.20;;;19.83;;
20114;SDS011;10218;42.874;25.320;2022-11-15T06:18:32;35.60;;;20.83;;
20114;SDS011;10218;42.874;25.320;2022-11-15T06:21:18;41.13;;;20.07;;
20114;SDS011;10218;42.874;25.320;2022-11-15T06:24:04;38.80;;;21.07;;
20114;SDS011;10218;42.874;25.320;2022-11-15T06:26:51;38.87;;;22.00;;
20114;SDS011;10218;42.874;25.320;2022-11-15T06:29:36;44.17;;;21.97;;
20114;SDS011;10218;42.874;25.320;2022-11-15T06:32:21;36.67;;;19.50;;
20114;SDS011;10218;42.874;25.320;2022-11-15T06:35:07;41.20;;;21.93;;
20114;SDS011;10218;42.874;25.320;2022-11-15T06:37:52;34.17;;;18.93;;
20114;SDS011;10218;42.874;25.320;2022-11-15T06:40:38;30.77;;;16.77;;
20114;SDS011;10218;42.874;25.320;2022-11-15T06:43:24;25.87;;;15.47;;
20114;SDS011;10218;42.874;25.320;2022-11-15T06:46:09;25.93;;;15.47;;
20114;SDS011;10218;42.874;25.320;2022-11-15T06:48:55;28.47;;;16.30;;
20114;SDS011;10218;42.874;25.320;2022-11-15T06:51:41;21.43;;;13.33;;
20114;SDS011;10218;42.874;25.320;2022-11-15T06:54:26;25.13;;;14.30;;
20114;SDS011;10218;42.874;25.320;2022-11-15T06:57:11;22.07;;;13.30;;
20114;SDS011;10218;42.874;25.320;2022-11-15T06:59:57;18.33;;;11.30;;
20114;SDS011;10218;42.874;25.320;2022-11-15T07:02:42;17.83;;;12.30;;
20114;SDS011;10218;42.874;25.320;2022-11-15T07:05:28;17.03;;;11.43;;
20114;SDS011;10218;42.874;25.320;2022-11-15T07:08:14;20.50;;;11.93;;
20114;SDS011;10218;42.874;25.320;2022-11-15T07:11:00;21.60;;;12.03;;
20114;SDS011;10218;42.874;25.320;2022-11-15T07:13:47;21.17;;;11.67;;
20114;SDS011;10218;42.874;25.320;2022-11-15T07:16:32;18.87;;;10.33;;
20114;SDS011;10218;42.874;25.320;2022-11-15T07:19:18;21.13;;;10.80;;
20114;SDS011;10218;42.874;25.320;2022-11-15T07:22:03;19.37;;;11.90;;
20114;SDS011;10218;42.874;25.320;2022-11-15T07:24:48;22.13;;;13.63;;
20114;SDS011;10218;42.874;25.320;2022-11-15T07:27:34;19.90;;;13.03;;
20114;SDS011;10218;42.874;25.320;2022-11-15T07:30:19;23.40;;;13.53;;
20114;SDS011;10218;42.874;25.320;2022-11-15T07:33:05;26.37;;;14.30;;
20114;SDS011;10218;42.874;25.320;2022-11-15T07:35:50;22.47;;;13.53;;
20114;SDS011;10218;42.874;25.320;2022-11-15T07:38:36;20.73;;;13.60;;
20114;SDS011;10218;42.874;25.320;2022-11-15T07:41:25;30.20;;;17.17;;
20114;SDS011;10218;42.874;25.320;2022-11-15T07:44:10;29.20;;;18.40;;
20114;SDS011;10218;42.874;25.320;2022-11-15T07:46:56;30.93;;;19.53;;
20114;SDS011;10218;42.874;25.320;2022-11-15T07:49:43;17.60;;;11.93;;
20114;SDS011;10218;42.874;25.320;2022-11-15T07:52:29;16.53;;;10.63;;
20114;SDS011;10218;42.874;25.320;2022-11-15T07:55:14;15.90;;;10.23;;
20114;SDS011;10218;42.874;25.320;2022-11-15T07:58:03;14.73;;;9.93;;
20114;SDS011;10218;42.874;25.320;2022-11-15T08:00:49;14.57;;;10.10;;
20114;SDS011;10218;42.874;25.320;2022-11-15T08:03:35;23.53;;;15.77;;
20114;SDS011;10218;42.874;25.320;2022-11-15T08:06:21;30.20;;;17.53;;
20114;SDS011;10218;42.874;25.320;2022-11-15T08:09:06;14.57;;;9.90;;
20114;SDS011;10218;42.874;25.320;2022-11-15T08:11:52;18.17;;;12.27;;
20114;SDS011;10218;42.874;25.320;2022-11-15T08:14:37;12.80;;;9.23;;
20114;SDS011;10218;42.874;25.320;2022-11-15T08:17:24;15.83;;;10.53;;
20114;SDS011;10218;42.874;25.320;2022-11-15T08:20:10;19.00;;;12.07;;
20114;SDS011;10218;42.874;25.320;2022-11-15T08:22:56;21.07;;;14.17;;
20114;SDS011;10218;42.874;25.320;2022-11-15T08:25:42;29.70;;;21.23;;
20114;SDS011;10218;42.874;25.320;2022-11-15T08:28:28;22.20;;;15.30;;
20114;SDS011;10218;42.874;25.320;2022-11-15T08:31:15;18.00;;;11.00;;
20114;SDS011;10218;42.874;25.320;2022-11-15T08:34:03;14.37;;;10.00;;
20114;SDS011;10218;42.874;25.320;2022-11-15T08:36:49;16.80;;;10.60;;
20114;SDS011;10218;42.874;25.320;2022-11-15T08:39:34;16.50;;;10.63;;
20114;SDS011;10218;42.874;25.320;2022-11-15T08:42:20;14.93;;;10.30;;
20114;SDS011;10218;42.874;25.320;2022-11-15T08:45:06;15.40;;;11.00;;
20114;SDS011;10218;42.874;25.320;2022-11-15T08:47:52;20.53;;;12.73;;
20114;SDS011;10218;42.874;25.320;2022-11-15T08:50:38;20.73;;;12.10;;
20114;SDS011;10218;42.874;25.320;2022-11-15T08:53:23;18.57;;;12.30;;
20114;SDS011;10218;42.874;25.320;2022-11-15T08:56:10;20.47;;;12.57;;
20114;SDS011;10218;42.874;25.320;2022-11-15T08:58:57;19.23;;;11.87;;
20114;SDS011;10218;42.874;25.320;2022-11-15T09:01:42;19.97;;;11.33;;
20114;SDS011;10218;42.874;25.320;2022-11-15T09:04:28;18.47;;;12.10;;
20114;SDS011;10218;42.874;25.320;2022-11-15T09:07:14;18.13;;;11.93;;
20114;SDS011;10218;42.874;25.320;2022-11-15T09:10:00;19.57;;;12.33;;
20114;SDS011;10218;42.874;25.320;2022-11-15T09:12:45;20.97;;;12.67;;
20114;SDS011;10218;42.874;25.320;2022-11-15T09:15:33;18.57;;;12.23;;
20114;SDS011;10218;42.874;25.320;2022-11-15T09:18:18;18.43;;;12.57;;
20114;SDS011;10218;42.874;25.320;2022-11-15T09:21:07;19.93;;;12.73;;
20114;SDS011;10218;42.874;25.320;2022-11-15T09:23:53;18.90;;;12.40;;
20114;SDS011;10218;42.874;25.320;2022-11-15T09:26:39;23.03;;;13.10;;
20114;SDS011;10218;42.874;25.320;2022-11-15T09:29:25;21.67;;;13.33;;
20114;SDS011;10218;42.874;25.320;2022-11-15T09:32:29;19.97;;;13.30;;
20114;SDS011;10218;42.874;25.320;2022-11-15T09:35:19;23.60;;;13.87;;
20114;SDS011;10218;42.874;25.320;2022-11-15T09:38:04;21.17;;;13.23;;
20114;SDS011;10218;42.874;25.320;2022-11-15T09:40:51;22.73;;;13.60;;
20114;SDS011;10218;42.874;25.320;2022-11-15T09:43:57;24.20;;;13.60;;
20114;SDS011;10218;42.874;25.320;2022-11-15T09:47:17;21.27;;;13.33;;
20114;SDS011;10218;42.874;25.320;2022-11-15T09:49:59;20.23;;;13.73;;
20114;SDS011;10218;42.874;25.320;2022-11-15T09:52:35;20.97;;;13.13;;
20114;SDS011;10218;42.874;25.320;2022-11-15T09:55:07;22.87;;;14.07;;
20114;SDS011;10218;42.874;25.320;2022-11-15T09:58:10;24.20;;;13.83;;
20114;SDS011;10218;42.874;25.320;2022-11-15T10:00:44;20.73;;;14.43;;
20114;SDS011;10218;42.874;25.320;2022-11-15T10:03:33;22.13;;;14.67;;
20114;SDS011;10218;42.874;25.320;2022-11-15T10:06:03;23.00;;;15.50;;
20114;SDS011;10218;42.874;25.320;2022-11-15T10:11:22;30.40;;;15.77;;
20114;SDS011;10218;42.874;25.320;2022-11-15T10:22:41;26.83;;;16.23;;
20114;SDS011;10218;42.874;25.320;2022-11-15T10:25:44;25.13;;;15.60;;
20114;SDS011;10218;42.874;25.320;2022-11-15T10:30:58;23.40;;;15.53;;
20114;SDS011;10218;42.874;25.320;2022-11-15T10:41:39;28.27;;;16.47;;
20114;SDS011;10218;42.874;25.320;2022-11-15T10:49:53;27.47;;;17.27;;
20114;SDS011;10218;42.874;25.320;2022-11-15T10:52:45;31.67;;;17.90;;
20114;SDS011;10218;42.874;25.320;2022-11-15T10:57:49;37.07;;;19.47;;
20114;SDS011;10218;42.874;25.320;2022-11-15T11:05:32;37.33;;;18.80;;
20114;SDS011;10218;42.874;25.320;2022-11-15T11:10:37;30.97;;;18.87;;
20114;SDS011;10218;42.874;25.320;2022-11-15T11:13:33;38.00;;;20.73;;
20114;SDS011;10218;42.874;25.320;2022-11-15T11:24:50;35.83;;;19.70;;
20114;SDS011;10218;42.874;25.320;2022-11-15T11:30:23;27.37;;;17.50;;
20114;SDS011;10218;42.874;25.320;2022-11-15T11:33:11;29.97;;;16.63;;
20114;SDS011;10218;42.874;25.320;2022-11-15T11:52:38;30.17;;;18.20;;
20114;SDS011;10218;42.874;25.320;2022-11-15T11:55:21;28.17;;;18.37;;
20114;SDS011;10218;42.874;25.320;2022-11-15T11:57:58;29.70;;;18.27;;
20114;SDS011;10218;42.874;25.320;2022-11-15T12:00:33;30.67;;;19.93;;
20114;SDS011;10218;42.874;25.320;2022-11-15T12:05:44;27.13;;;18.33;;
20114;SDS011;10218;42.874;25.320;2022-11-15T12:08:27;28.50;;;18.30;;
20114;SDS011;10218;42.874;25.320;2022-11-15T12:11:06;26.53;;;18.13;;
20114;SDS011;10218;42.874;25.320;2022-11-15T12:13:37;25.63;;;18.30;;
20114;SDS011;10218;42.874;25.320;2022-11-15T12:16:07;30.27;;;19.13;;
20114;SDS011;10218;42.874;25.320;2022-11-15T12:18:48;30.27;;;18.50;;
20114;SDS011;10218;42.874;25.320;2022-11-15T12:24:19;27.77;;;18.03;;
20114;SDS011;10218;42.874;25.320;2022-11-15T12:32:03;29.20;;;18.60;;
20114;SDS011;10218;42.874;25.320;2022-11-15T12:34:37;24.67;;;17.13;;
20114;SDS011;10218;42.874;25.320;2022-11-15T12:37:51;25.33;;;17.37;;
20114;SDS011;10218;42.874;25.320;2022-11-15T12:40:26;26.10;;;18.47;;
20114;SDS011;10218;42.874;25.320;2022-11-15T12:42:58;31.90;;;19.23;;
20114;SDS011;10218;42.874;25.320;2022-11-15T12:56:09;25.60;;;18.07;;
20114;SDS011;10218;42.874;25.320;2022-11-15T13:06:46;29.80;;;19.70;;
20114;SDS011;10218;42.874;25.320;2022-11-15T13:11:55;31.67;;;18.97;;
20114;SDS011;10218;42.874;25.320;2022-11-15T13:19:58;33.97;;;20.13;;
20114;SDS011;10218;42.874;25.320;2022-11-15T13:22:28;33.77;;;21.40;;
20114;SDS011;10218;42.874;25.320;2022-11-15T13:36:03;31.67;;;20.83;;
20114;SDS011;10218;42.874;25.320;2022-11-15T13:38:37;39.40;;;22.50;;
20114;SDS011;10218;42.874;25.320;2022-11-15T13:41:16;34.17;;;20.80;;
20114;SDS011;10218;42.874;25.320;2022-11-15T13:43:49;37.53;;;23.83;;
20114;SDS011;10218;42.874;25.320;2022-11-15T13:48:53;37.97;;;22.00;;
20114;SDS011;10218;42.874;25.320;2022-11-15T13:51:30;42.03;;;22.07;;
20114;SDS011;10218;42.874;25.320;2022-11-15T13:56:35;42.90;;;25.07;;
20114;SDS011;10218;42.874;25.320;2022-11-15T13:59:10;42.73;;;23.80;;
20114;SDS011;10218;42.874;25.320;2022-11-15T14:01:44;44.30;;;24.33;;
20114;SDS011;10218;42.874;25.320;2022-11-15T14:04:13;42.10;;;24.90;;
20114;SDS011;10218;42.874;25.320;2022-11-15T14:06:45;40.73;;;25.57;;
20114;SDS011;10218;42.874;25.320;2022-11-15T14:11:52;44.60;;;24.73;;
20114;SDS011;10218;42.874;25.320;2022-11-15T14:14:22;42.03;;;23.63;;
20114;SDS011;10218;42.874;25.320;2022-11-15T14:16:52;40.40;;;22.13;;
20114;SDS011;10218;42.874;25.320;2022-11-15T14:30:46;41.10;;;24.30;;
20114;SDS011;10218;42.874;25.320;2022-11-15T14:33:25;41.23;;;23.90;;
20114;SDS011;10218;42.874;25.320;2022-11-15T14:36:04;41.33;;;24.17;;
20114;SDS011;10218;42.874;25.320;2022-11-15T14:38:32;39.17;;;23.90;;
20114;SDS011;10218;42.874;25.320;2022-11-15T14:40:59;40.47;;;23.63;;
20114;SDS011;10218;42.874;25.320;2022-11-15T14:43:26;37.70;;;22.63;;
20114;SDS011;10218;42.874;25.320;2022-11-15T14:45:54;38.50;;;24.23;;
20114;SDS011;10218;42.874;25.320;2022-11-15T14:48:21;40.40;;;25.17;;
20114;SDS011;10218;42.874;25.320;2022-11-15T14:50:48;46.27;;;26.27;;
20114;SDS011;10218;42.874;25.320;2022-11-15T14:53:16;44.23;;;25.93;;
20114;SDS011;10218;42.874;25.320;2022-11-15T14:55:44;39.70;;;24.87;;
20114;SDS011;10218;42.874;25.320;2022-11-15T14:58:11;40.47;;;25.83;;
20114;SDS011;10218;42.874;25.320;2022-11-15T15:00:39;39.20;;;24.40;;
20114;SDS011;10218;42.874;25.320;2022-11-15T15:03:07;44.30;;;27.97;;
20114;SDS011;10218;42.874;25.320;2022-11-15T15:05:41;39.80;;;25.03;;
20114;SDS011;10218;42.874;25.320;2022-11-15T15:08:10;37.00;;;23.83;;
20114;SDS011;10218;42.874;25.320;2022-11-15T15:10:38;37.43;;;23.43;;
20114;SDS011;10218;42.874;25.320;2022-11-15T15:15:45;37.60;;;24.97;;
20114;SDS011;10218;42.874;25.320;2022-11-15T15:18:13;37.27;;;24.63;;
20114;SDS011;10218;42.874;25.320;2022-11-15T15:20:43;37.20;;;23.47;;
20114;SDS011;10218;42.874;25.320;2022-11-15T15:23:16;36.70;;;24.23;;
20114;SDS011;10218;42.874;25.320;2022-11-15T15:25:45;39.87;;;24.33;;
20114;SDS011;10218;42.874;25.320;2022-11-15T15:28:14;39.47;;;24.93;;
20114;SDS011;10218;42.874;25.320;2022-11-15T15:30:41;40.10;;;25.47;;
20114;SDS011;10218;42.874;25.320;2022-11-15T15:33:08;41.43;;;24.30;;
20114;SDS011;10218;42.874;25.320;2022-11-15T15:35:36;37.60;;;23.47;;
20114;SDS011;10218;42.874;25.320;2022-11-15T15:38:03;41.00;;;24.43;;
20114;SDS011;10218;42.874;25.320;2022-11-15T15:40:31;35.60;;;22.37;;
20114;SDS011;10218;42.874;25.320;2022-11-15T15:42:59;36.40;;;23.43;;
20114;SDS011;10218;42.874;25.320;2022-11-15T15:45:27;52.63;;;34.63;;
20114;SDS011;10218;42.874;25.320;2022-11-15T15:47:55;43.37;;;26.40;;
20114;SDS011;10218;42.874;25.320;2022-11-15T15:50:23;48.67;;;29.73;;
20114;SDS011;10218;42.874;25.320;2022-11-15T15:52:51;39.87;;;25.37;;
20114;SDS011;10218;42.874;25.320;2022-11-15T15:55:19;40.93;;;25.83;;
20114;SDS011;10218;42.874;25.320;2022-11-15T15:57:47;43.93;;;26.47;;
20114;SDS011;10218;42.874;25.320;2022-11-15T16:00:14;43.80;;;25.67;;
20114;SDS011;10218;42.874;25.320;2022-11-15T16:02:43;41.87;;;25.33;;
20114;SDS011;10218;42.874;25.320;2022-11-15T16:05:11;44.63;;;28.20;;
20114;SDS011;10218;42.874;25.320;2022-11-15T16:07:39;51.97;;;29.50;;
20114;SDS011;10218;42.874;25.320;2022-11-15T16:12:54;56.93;;;32.23;;
20114;SDS011;10218;42.874;25.320;2022-11-15T16:15:23;54.20;;;29.90;;
20114;SDS011;10218;42.874;25.320;2022-11-15T16:17:52;55.60;;;32.17;;
20114;SDS011;10218;42.874;25.320;2022-11-15T16:20:23;53.03;;;31.23;;
20114;SDS011;10218;42.874;25.320;2022-11-15T16:23:03;52.60;;;30.77;;
20114;SDS011;10218;42.874;25.320;2022-11-15T16:25:36;58.07;;;32.13;;
20114;SDS011;10218;42.874;25.320;2022-11-15T16:31:03;57.37;;;32.90;;
20114;SDS011;10218;42.874;25.320;2022-11-15T16:33:32;55.43;;;32.23;;
20114;SDS011;10218;42.874;25.320;2022-11-15T16:35:59;57.33;;;32.83;;
20114;SDS011;10218;42.874;25.320;2022-11-15T16:38:26;60.83;;;34.13;;
20114;SDS011;10218;42.874;25.320;2022-11-15T16:40:54;62.10;;;35.73;;
20114;SDS011;10218;42.874;25.320;2022-11-15T16:43:21;62.57;;;35.20;;
20114;SDS011;10218;42.874;25.320;2022-11-15T16:45:48;79.57;;;43.93;;
20114;SDS011;10218;42.874;25.320;2022-11-15T16:48:24;67.97;;;37.27;;
20114;SDS011;10218;42.874;25.320;2022-11-15T16:50:53;65.67;;;36.67;;
20114;SDS011;10218;42.874;25.320;2022-11-15T16:53:22;66.40;;;35.77;;
20114;SDS011;10218;42.874;25.320;2022-11-15T16:55:50;68.47;;;35.37;;
20114;SDS011;10218;42.874;25.320;2022-11-15T16:58:17;63.77;;;34.53;;
20114;SDS011;10218;42.874;25.320;2022-11-15T17:00:44;62.27;;;33.73;;
20114;SDS011;10218;42.874;25.320;2022-11-15T17:03:11;60.53;;;33.57;;
20114;SDS011;10218;42.874;25.320;2022-11-15T17:05:38;59.33;;;33.03;;
20114;SDS011;10218;42.874;25.320;2022-11-15T17:08:06;62.33;;;34.30;;
20114;SDS011;10218;42.874;25.320;2022-11-15T17:10:34;63.83;;;35.43;;
20114;SDS011;10218;42.874;25.320;2022-11-15T17:13:07;68.17;;;38.40;;
20114;SDS011;10218;42.874;25.320;2022-11-15T17:15:38;83.60;;;45.83;;
20114;SDS011;10218;42.874;25.320;2022-11-15T17:18:05;82.53;;;46.47;;
20114;SDS011;10218;42.874;25.320;2022-11-15T17:20:32;69.27;;;37.57;;
20114;SDS011;10218;42.874;25.320;2022-11-15T17:22:59;63.87;;;33.50;;
20114;SDS011;10218;42.874;25.320;2022-11-15T17:25:27;109.97;;;62.87;;
20114;SDS011;10218;42.874;25.320;2022-11-15T17:27:54;63.47;;;35.57;;
20114;SDS011;10218;42.874;25.320;2022-11-15T17:30:21;81.27;;;45.53;;
20114;SDS011;10218;42.874;25.320;2022-11-15T17:32:49;64.67;;;36.30;;
20114;SDS011;10218;42.874;25.320;2022-11-15T17:35:16;66.70;;;33.43;;
20114;SDS011;10218;42.874;25.320;2022-11-15T17:37:43;66.33;;;35.70;;
20114;SDS011;10218;42.874;25.320;2022-11-15T17:40:11;73.53;;;39.13;;
20114;SDS011;10218;42.874;25.320;2022-11-15T17:42:39;72.37;;;38.97;;
20114;SDS011;10218;42.874;25.320;2022-11-15T17:45:08;74.93;;;37.93;;
20114;SDS011;10218;42.874;25.320;2022-11-15T17:47:36;74.00;;;40.53;;
20114;SDS011;10218;42.874;25.320;2022-11-15T17:50:04;86.97;;;45.67;;
20114;SDS011;10218;42.874;25.320;2022-11-15T17:52:31;80.17;;;42.17;;
20114;SDS011;10218;42.874;25.320;2022-11-15T17:54:58;80.10;;;42.63;;
20114;SDS011;10218;42.874;25.320;2022-11-15T17:57:25;74.37;;;39.47;;
20114;SDS011;10218;42.874;25.320;2022-11-15T17:59:52;86.50;;;47.07;;
20114;SDS011;10218;42.874;25.320;2022-11-15T18:02:20;84.60;;;46.13;;
20114;SDS011;10218;42.874;25.320;2022-11-15T18:04:47;72.00;;;39.53;;
20114;SDS011;10218;42.874;25.320;2022-11-15T18:07:14;75.97;;;39.30;;
20114;SDS011;10218;42.874;25.320;2022-11-15T18:09:41;81.10;;;42.83;;
20114;SDS011;10218;42.874;25.320;2022-11-15T18:12:10;81.13;;;42.33;;
20114;SDS011;10218;42.874;25.320;2022-11-15T18:14:37;71.37;;;37.13;;
20114;SDS011;10218;42.874;25.320;2022-11-15T18:17:05;77.03;;;41.73;;
20114;SDS011;10218;42.874;25.320;2022-11-15T18:19:32;72.27;;;41.30;;
20114;SDS011;10218;42.874;25.320;2022-11-15T18:22:00;73.10;;;40.63;;
20114;SDS011;10218;42.874;25.320;2022-11-15T18:24:30;71.10;;;38.83;;
20114;SDS011;10218;42.874;25.320;2022-11-15T18:27:00;75.07;;;41.30;;
20114;SDS011;10218;42.874;25.320;2022-11-15T18:29:29;70.83;;;38.27;;
20114;SDS011;10218;42.874;25.320;2022-11-15T18:31:57;60.07;;;32.27;;
20114;SDS011;10218;42.874;25.320;2022-11-15T18:34:26;50.10;;;27.67;;
20114;SDS011;10218;42.874;25.320;2022-11-15T18:36:59;53.30;;;31.37;;